createdAt,value
2022-10-31T00:04:02.978Z,80.76
2022-10-31T00:09:11.672Z,80.82
2022-10-31T00:14:18.647Z,80.93
2022-10-31T00:19:25.551Z,80.99
2022-10-31T00:24:32.431Z,81.10
2022-10-31T00:29:39.464Z,81.17
2022-10-31T00:34:46.500Z,81.32
2022-10-31T00:39:53.448Z,81.35
2022-10-31T00:45:01.110Z,81.29
2022-10-31T00:50:09.256Z,81.38
2022-10-31T00:55:16.555Z,81.35
2022-10-31T01:00:23.947Z,81.49
2022-10-31T01:05:31.184Z,81.65
2022-10-31T01:10:38.145Z,81.88
2022-10-31T01:15:45.061Z,81.92
2022-10-31T01:21:01.270Z,82.05
2022-10-31T01:26:11.565Z,81.97
2022-10-31T01:31:23.026Z,82.23
2022-10-31T01:36:33.026Z,82.27
2022-10-31T01:41:42.193Z,82.34
2022-10-31T01:46:52.917Z,82.30
2022-10-31T01:52:04.378Z,82.31
2022-10-31T01:57:13.833Z,82.16
2022-10-31T02:02:22.476Z,82.33
2022-10-31T02:07:42.023Z,82.70
2022-10-31T02:12:50.200Z,82.80
2022-10-31T02:17:57.540Z,82.59
2022-10-31T02:23:34.176Z,82.83
2022-10-31T02:29:04.575Z,82.83
2022-10-31T02:34:20.635Z,82.85
2022-10-31T02:39:32.960Z,83.05
2022-10-31T02:44:46.987Z,83.07
2022-10-31T02:50:00.075Z,82.99
2022-10-31T02:55:35.390Z,82.77
2022-10-31T03:00:52.773Z,83.04
2022-10-31T03:06:04.125Z,82.93
2022-10-31T03:11:11.981Z,82.86
2022-10-31T03:16:25.984Z,83.15
2022-10-31T03:21:38.452Z,83.17
2022-10-31T03:26:49.014Z,83.12
2022-10-31T03:31:59.582Z,83.12
2022-10-31T03:37:13.055Z,83.20
2022-10-31T03:42:23.740Z,83.16
2022-10-31T03:47:32.700Z,83.32
2022-10-31T03:52:49.255Z,83.12
2022-10-31T03:58:01.717Z,82.92
2022-10-31T04:03:13.926Z,83.09
2022-10-31T04:08:26.410Z,83.18
2022-10-31T04:13:36.723Z,83.31
2022-10-31T04:18:48.448Z,83.34
2022-10-31T04:23:57.406Z,83.42
2022-10-31T04:29:05.743Z,83.52
2022-10-31T04:34:12.874Z,83.64
2022-10-31T04:39:24.204Z,83.56
2022-10-31T04:44:53.715Z,83.50
2022-10-31T04:50:01.090Z,83.32
2022-10-31T04:55:09.810Z,83.59
2022-10-31T05:00:45.635Z,83.55
2022-10-31T05:05:53.125Z,83.52
2022-10-31T05:11:04.586Z,83.47
2022-10-31T05:16:12.442Z,83.71
2022-10-31T05:21:38.204Z,83.72
2022-10-31T05:26:45.130Z,83.71
2022-10-31T05:31:54.013Z,83.87
2022-10-31T05:37:21.215Z,83.89
2022-10-31T05:42:28.181Z,83.82
2022-10-31T05:47:35.541Z,83.73
2022-10-31T05:53:05.183Z,83.87
2022-10-31T05:58:16.210Z,84.02
2022-10-31T06:03:29.739Z,84.05
2022-10-31T06:08:37.939Z,84.10
2022-10-31T06:13:47.970Z,84.22
2022-10-31T06:19:00.325Z,84.40
2022-10-31T06:24:08.596Z,84.52
2022-10-31T06:29:38.790Z,84.23
2022-10-31T06:34:49.888Z,84.13
2022-10-31T06:39:56.884Z,84.18
2022-10-31T06:45:04.536Z,84.24
2022-10-31T06:50:37.583Z,84.26
2022-10-31T06:55:45.078Z,84.43
2022-10-31T07:00:53.599Z,84.31
2022-10-31T07:06:00.741Z,84.40
2022-10-31T07:11:07.974Z,84.66
2022-10-31T07:16:15.432Z,84.61
2022-10-31T07:21:23.897Z,84.61
2022-10-31T07:26:31.648Z,84.65
2022-10-31T07:31:38.914Z,84.73
2022-10-31T07:36:58.852Z,84.76
2022-10-31T07:42:15.833Z,84.60
2022-10-31T07:47:25.218Z,84.62
2022-10-31T07:53:06.964Z,84.99
2022-10-31T07:58:43.616Z,84.89
2022-10-31T08:03:51.122Z,84.75
2022-10-31T08:09:17.071Z,84.73
2022-10-31T08:14:24.546Z,84.82
2022-10-31T08:19:32.242Z,84.68
2022-10-31T08:29:51.628Z,84.72
2022-10-31T08:34:59.904Z,85.01
2022-10-31T08:40:25.613Z,84.89
2022-10-31T08:45:33.971Z,84.91
2022-10-31T08:50:41.868Z,84.69
2022-10-31T08:55:49.815Z,84.84
2022-10-31T09:01:06.640Z,85.12
2022-10-31T09:06:13.828Z,85.04
2022-10-31T09:11:21.000Z,85.00
2022-10-31T09:16:50.893Z,85.08
2022-10-31T09:22:01.994Z,84.89
2022-10-31T09:27:10.544Z,85.12
2022-10-31T09:32:21.321Z,85.10
2022-10-31T09:37:28.789Z,85.09
2022-10-31T09:42:51.741Z,84.94
2022-10-31T09:48:23.739Z,84.87
2022-10-31T09:54:07.149Z,85.10
2022-10-31T09:59:21.299Z,85.32
2022-10-31T10:04:37.398Z,85.23
2022-10-31T10:09:49.479Z,85.35
2022-10-31T10:15:36.803Z,85.26
2022-10-31T10:20:56.144Z,85.28
2022-10-31T10:26:11.334Z,85.19
2022-10-31T10:31:23.318Z,85.17
2022-10-31T10:36:41.478Z,85.10
2022-10-31T10:42:02.949Z,85.05
2022-10-31T10:47:27.899Z,85.31
2022-10-31T10:52:50.592Z,85.31
2022-10-31T10:58:02.517Z,85.39
2022-10-31T11:03:10.248Z,85.17
2022-10-31T11:08:27.930Z,85.14
2022-10-31T11:13:35.924Z,85.16
2022-10-31T11:18:43.706Z,85.18
2022-10-31T11:23:50.925Z,85.22
2022-10-31T11:29:03.809Z,85.29
2022-10-31T11:34:21.245Z,85.17
2022-10-31T11:39:28.497Z,85.07
2022-10-31T11:44:35.693Z,85.05
2022-10-31T11:49:44.914Z,85.14
2022-10-31T11:54:56.551Z,85.08
2022-10-31T12:00:06.490Z,85.10
2022-10-31T12:05:26.155Z,85.14
2022-10-31T12:10:41.440Z,85.06
2022-10-31T12:16:01.444Z,85.01
2022-10-31T12:21:27.931Z,85.06
2022-10-31T12:26:44.454Z,85.08
2022-10-31T12:32:04.651Z,85.33
2022-10-31T12:37:19.015Z,85.25
2022-10-31T12:42:38.256Z,85.17
2022-10-31T12:47:58.784Z,85.18
2022-10-31T12:58:32.694Z,85.09
2022-10-31T13:03:48.923Z,85.05
2022-10-31T13:09:01.238Z,84.97
2022-10-31T13:14:13.511Z,85.12
2022-10-31T13:19:24.675Z,85.18
2022-10-31T13:24:37.603Z,85.11
2022-10-31T13:29:54.545Z,84.99
2022-10-31T13:35:02.481Z,85.13
2022-10-31T13:40:22.201Z,85.15
2022-10-31T13:45:30.561Z,85.19
2022-10-31T13:50:37.502Z,85.08
2022-10-31T13:55:46.313Z,85.03
2022-10-31T14:01:14.430Z,85.05
2022-10-31T14:06:21.619Z,85.16
2022-10-31T14:11:34.547Z,85.21
2022-10-31T14:16:50.922Z,85.13
2022-10-31T14:22:00.543Z,85.24
2022-10-31T14:27:22.480Z,85.20
2022-10-31T14:32:30.350Z,85.14
2022-10-31T14:37:57.750Z,85.23
2022-10-31T14:43:24.483Z,85.18
2022-10-31T14:48:55.895Z,85.26
2022-10-31T14:54:03.618Z,85.22
2022-10-31T14:59:16.503Z,85.20
2022-10-31T15:04:27.148Z,85.19
2022-10-31T15:09:35.677Z,85.15
2022-10-31T15:14:42.567Z,85.27
2022-10-31T15:19:49.791Z,85.39
2022-10-31T15:24:58.311Z,85.39
2022-10-31T15:30:05.531Z,85.30
2022-10-31T15:35:21.802Z,85.28
2022-10-31T15:40:30.087Z,85.35
2022-10-31T15:45:38.487Z,85.27
2022-10-31T15:50:52.339Z,85.27
2022-10-31T15:56:03.163Z,85.40
2022-10-31T16:01:23.718Z,85.36
2022-10-31T16:06:31.063Z,85.36
2022-10-31T16:11:40.069Z,85.39
2022-10-31T16:16:50.528Z,85.35
2022-10-31T16:22:04.407Z,85.24
2022-10-31T16:27:26.716Z,85.04
2022-10-31T16:32:37.178Z,85.29
2022-10-31T16:37:44.985Z,85.35
2022-10-31T16:42:52.063Z,85.51
2022-10-31T16:48:06.271Z,85.36
2022-10-31T16:53:15.765Z,85.39
2022-10-31T16:58:27.395Z,85.25
2022-10-31T17:03:34.575Z,85.31
2022-10-31T17:08:42.062Z,85.67
2022-10-31T17:13:49.150Z,85.66
2022-10-31T17:18:56.566Z,85.51
2022-10-31T17:24:03.747Z,85.50
2022-10-31T17:29:10.708Z,85.46
2022-10-31T17:34:19.284Z,85.54
2022-10-31T17:39:27.296Z,85.66
2022-10-31T17:44:32.641Z,85.57
2022-10-31T17:49:39.675Z,85.71
2022-10-31T17:54:46.700Z,85.66
2022-10-31T17:59:53.722Z,85.76
2022-10-31T18:05:02.634Z,85.74
2022-10-31T18:10:11.506Z,85.75
2022-10-31T18:15:19.223Z,85.73
2022-10-31T18:20:26.589Z,85.84
2022-10-31T18:25:33.854Z,85.76
2022-10-31T18:30:43.684Z,85.72
2022-10-31T18:35:50.851Z,85.72
2022-10-31T18:40:57.945Z,85.65
2022-10-31T18:46:06.248Z,85.63
2022-10-31T18:51:18.463Z,85.68
2022-10-31T18:56:26.455Z,85.58
2022-10-31T19:01:34.144Z,85.66
2022-10-31T19:06:41.272Z,85.59
2022-10-31T19:11:48.302Z,85.59
2022-10-31T19:16:58.321Z,85.66
2022-10-31T19:22:08.204Z,85.64
2022-10-31T19:27:15.154Z,85.57
2022-10-31T19:32:22.189Z,85.67
2022-10-31T19:37:29.148Z,85.68
2022-10-31T19:42:36.108Z,85.79
2022-10-31T19:47:43.075Z,85.80
2022-10-31T19:52:50.145Z,85.57
2022-10-31T19:58:01.696Z,85.68
2022-10-31T20:03:21.600Z,85.69
2022-10-31T20:08:30.234Z,85.85
2022-10-31T20:13:37.364Z,85.48
2022-10-31T20:18:45.360Z,85.15
2022-10-31T20:23:56.130Z,85.20
2022-10-31T20:29:05.570Z,85.49
2022-10-31T20:34:16.810Z,85.52
2022-10-31T20:39:30.692Z,85.62
2022-10-31T20:44:52.531Z,85.54
2022-10-31T20:50:18.482Z,85.62
2022-10-31T20:55:56.906Z,85.67
2022-10-31T21:01:39.937Z,85.66
2022-10-31T21:07:06.373Z,85.77
2022-10-31T21:12:27.282Z,85.69
2022-10-31T21:23:52.870Z,85.66
2022-10-31T21:29:29.323Z,85.51
2022-10-31T21:35:25.651Z,85.75
2022-10-31T21:40:54.526Z,85.73
2022-10-31T21:54:28.320Z,85.54
2022-10-31T22:01:05.913Z,85.68
2022-10-31T22:07:09.125Z,85.72
2022-10-31T22:27:13.375Z,85.75
2022-10-31T22:32:41.853Z,85.64
2022-10-31T22:37:52.505Z,85.77
2022-10-31T22:42:59.830Z,85.83
2022-10-31T22:48:07.883Z,85.64
2022-10-31T22:53:17.153Z,85.74
2022-10-31T22:58:26.071Z,85.83
2022-10-31T23:03:31.893Z,86.00
2022-10-31T23:08:40.677Z,85.80
2022-10-31T23:14:06.402Z,85.49
2022-10-31T23:19:16.936Z,85.45
2022-10-31T23:24:26.304Z,85.51
2022-10-31T23:29:34.690Z,85.48
2022-10-31T23:34:41.884Z,85.62
2022-10-31T23:39:49.931Z,85.84
2022-10-31T23:44:56.213Z,85.94
2022-10-31T23:50:10.109Z,86.07
2022-10-31T23:55:17.641Z,85.77
